createdAt,value
2022-10-30T00:02:01.780Z,97.97
2022-10-30T00:04:29.370Z,99.60
2022-10-30T00:06:56.806Z,100.00
2022-10-30T00:09:24.296Z,100.00
2022-10-30T00:11:53.124Z,100.00
2022-10-30T00:14:20.598Z,100.00
2022-10-30T00:16:48.078Z,100.00
2022-10-30T00:19:15.535Z,100.00
2022-10-30T00:21:43.059Z,99.20
2022-10-30T00:24:12.010Z,99.23
2022-10-30T00:26:39.469Z,99.75
2022-10-30T00:29:08.270Z,98.92
2022-10-30T00:31:35.740Z,100.00
2022-10-30T00:34:03.181Z,100.00
2022-10-30T00:36:30.650Z,100.00
2022-10-30T00:38:58.084Z,98.07
2022-10-30T00:41:26.074Z,97.83
2022-10-30T00:43:54.013Z,97.55
2022-10-30T00:46:28.765Z,97.21
2022-10-30T00:48:59.170Z,96.96
2022-10-30T00:51:28.725Z,97.08
2022-10-30T00:54:00.224Z,96.99
2022-10-30T00:56:28.289Z,96.91
2022-10-30T00:58:59.893Z,96.90
2022-10-30T01:01:33.627Z,96.96
2022-10-30T01:04:03.659Z,96.83
2022-10-30T01:06:33.414Z,96.83
2022-10-30T01:09:01.547Z,96.60
2022-10-30T01:11:29.120Z,96.70
2022-10-30T01:14:01.029Z,96.54
2022-10-30T01:16:50.676Z,97.19
2022-10-30T01:19:26.880Z,96.37
2022-10-30T01:22:06.969Z,96.42
2022-10-30T01:24:46.357Z,96.40
2022-10-30T01:27:30.562Z,96.53
2022-10-30T01:30:11.005Z,96.89
2022-10-30T01:32:52.004Z,96.33
2022-10-30T01:35:24.843Z,96.56
2022-10-30T01:37:59.015Z,96.78
2022-10-30T01:40:26.677Z,96.40
2022-10-30T01:42:55.364Z,97.13
2022-10-30T01:45:32.214Z,97.08
2022-10-30T01:48:27.249Z,96.91
2022-10-30T01:51:00.404Z,97.03
2022-10-30T01:53:43.413Z,96.75
2022-10-30T01:56:20.342Z,96.79
2022-10-30T01:58:56.994Z,96.60
2022-10-30T02:01:25.982Z,96.50
2022-10-30T02:03:55.103Z,96.46
2022-10-30T02:06:22.631Z,96.42
2022-10-30T02:08:50.089Z,96.41
2022-10-30T02:11:18.402Z,96.50
2022-10-30T02:13:45.882Z,96.36
2022-10-30T02:16:13.500Z,96.62
2022-10-30T02:18:41.641Z,96.66
2022-10-30T02:21:10.565Z,96.60
2022-10-30T02:23:38.281Z,96.98
2022-10-30T02:26:05.866Z,96.57
2022-10-30T02:28:33.358Z,96.44
2022-10-30T02:31:00.862Z,96.62
2022-10-30T02:33:28.405Z,96.47
2022-10-30T02:35:55.884Z,96.62
2022-10-30T02:38:25.027Z,96.64
2022-10-30T02:40:52.481Z,96.82
2022-10-30T02:43:19.969Z,96.59
2022-10-30T02:45:51.821Z,96.43
2022-10-30T02:48:19.357Z,98.52
2022-10-30T02:50:46.839Z,97.11
2022-10-30T02:53:14.313Z,96.65
2022-10-30T02:55:43.184Z,96.74
2022-10-30T02:58:11.038Z,96.58
2022-10-30T03:00:38.533Z,96.54
2022-10-30T03:03:06.053Z,96.64
2022-10-30T03:05:33.503Z,96.62
2022-10-30T03:08:01.425Z,96.47
2022-10-30T03:10:29.150Z,96.56
2022-10-30T03:12:59.480Z,96.26
2022-10-30T03:15:26.998Z,95.91
2022-10-30T03:17:54.684Z,96.38
2022-10-30T03:20:22.552Z,96.61
2022-10-30T03:22:50.022Z,96.29
2022-10-30T03:25:23.381Z,96.56
2022-10-30T03:27:50.929Z,96.22
2022-10-30T03:30:20.253Z,96.17
2022-10-30T03:32:47.722Z,96.16
2022-10-30T03:35:15.264Z,96.29
2022-10-30T03:37:42.702Z,96.09
2022-10-30T03:40:11.182Z,96.05
2022-10-30T03:42:40.396Z,95.66
2022-10-30T03:45:09.019Z,96.01
2022-10-30T03:47:40.700Z,96.08
2022-10-30T03:50:08.692Z,95.93
2022-10-30T03:52:36.816Z,95.56
2022-10-30T03:55:04.593Z,95.98
2022-10-30T03:57:32.094Z,95.77
2022-10-30T03:59:59.545Z,95.78
2022-10-30T04:02:27.050Z,95.86
2022-10-30T04:04:55.844Z,96.36
2022-10-30T04:07:23.333Z,95.45
2022-10-30T04:09:50.793Z,97.70
2022-10-30T04:12:18.269Z,96.62
2022-10-30T04:14:45.737Z,97.20
2022-10-30T04:17:13.643Z,95.64
2022-10-30T04:19:41.177Z,97.15
2022-10-30T04:22:09.969Z,96.93
2022-10-30T04:24:39.510Z,96.20
2022-10-30T04:27:07.031Z,95.99
2022-10-30T04:29:34.472Z,95.97
2022-10-30T04:32:02.020Z,95.77
2022-10-30T04:34:29.511Z,97.04
2022-10-30T04:36:56.963Z,95.69
2022-10-30T04:39:25.768Z,94.48
2022-10-30T04:41:53.336Z,94.20
2022-10-30T04:44:20.949Z,94.99
2022-10-30T04:46:48.402Z,95.97
2022-10-30T04:49:15.866Z,95.59
2022-10-30T04:51:46.305Z,95.55
2022-10-30T04:54:13.858Z,95.54
2022-10-30T04:56:42.635Z,95.66
2022-10-30T04:59:10.134Z,95.25
2022-10-30T05:01:37.676Z,95.15
2022-10-30T05:04:05.518Z,94.64
2022-10-30T05:06:34.073Z,94.38
2022-10-30T05:09:01.561Z,94.22
2022-10-30T05:11:29.041Z,94.39
2022-10-30T05:13:58.193Z,93.95
2022-10-30T05:16:25.658Z,93.51
2022-10-30T05:18:53.177Z,94.56
2022-10-30T05:21:20.638Z,94.13
2022-10-30T05:23:48.122Z,94.49
2022-10-30T05:26:15.579Z,93.26
2022-10-30T05:28:43.077Z,93.77
2022-10-30T05:31:11.909Z,94.11
2022-10-30T05:33:39.399Z,94.06
2022-10-30T05:36:07.454Z,94.20
2022-10-30T05:38:34.881Z,94.00
2022-10-30T05:41:02.398Z,93.29
2022-10-30T05:43:29.833Z,94.44
2022-10-30T05:45:57.326Z,93.87
2022-10-30T05:48:26.148Z,94.26
2022-10-30T05:50:53.638Z,93.40
2022-10-30T05:53:21.084Z,93.51
2022-10-30T05:55:48.603Z,92.89
2022-10-30T05:58:16.100Z,93.34
2022-10-30T06:00:44.315Z,93.79
2022-10-30T06:03:13.113Z,92.98
2022-10-30T06:05:42.145Z,92.74
2022-10-30T06:08:09.659Z,92.90
2022-10-30T06:10:37.731Z,93.63
2022-10-30T06:13:07.954Z,92.54
2022-10-30T06:15:35.456Z,93.18
2022-10-30T06:18:03.123Z,93.83
2022-10-30T06:20:31.414Z,93.58
2022-10-30T06:23:01.978Z,93.34
2022-10-30T06:25:31.650Z,93.22
2022-10-30T06:28:00.596Z,92.90
2022-10-30T06:30:28.566Z,93.23
2022-10-30T06:33:00.603Z,93.09
2022-10-30T06:35:29.109Z,93.85
2022-10-30T06:38:00.012Z,94.04
2022-10-30T06:40:29.840Z,93.99
2022-10-30T06:42:58.349Z,93.35
2022-10-30T06:45:26.441Z,93.95
2022-10-30T06:47:53.937Z,93.37
2022-10-30T06:50:24.060Z,93.57
2022-10-30T06:52:51.549Z,93.52
2022-10-30T06:55:19.831Z,94.19
2022-10-30T06:57:54.651Z,94.08
2022-10-30T07:00:22.294Z,94.33
2022-10-30T07:02:57.338Z,94.50
2022-10-30T07:05:25.182Z,94.47
2022-10-30T07:07:52.909Z,94.30
2022-10-30T07:10:20.369Z,94.49
2022-10-30T07:12:58.766Z,94.47
2022-10-30T07:15:27.458Z,94.09
2022-10-30T07:17:58.754Z,94.73
2022-10-30T07:20:27.680Z,94.34
2022-10-30T07:22:55.370Z,95.11
2022-10-30T07:25:23.112Z,94.53
2022-10-30T07:27:52.476Z,95.16
2022-10-30T07:30:22.974Z,95.45
2022-10-30T07:32:58.384Z,94.79
2022-10-30T07:35:26.214Z,95.23
2022-10-30T07:37:54.009Z,95.87
2022-10-30T07:40:21.804Z,95.01
2022-10-30T07:42:49.311Z,95.19
2022-10-30T07:45:16.840Z,97.29
2022-10-30T07:47:45.654Z,98.16
2022-10-30T07:50:13.154Z,97.32
2022-10-30T07:52:40.648Z,97.55
2022-10-30T07:55:09.313Z,97.48
2022-10-30T07:57:37.659Z,98.00
2022-10-30T08:06:24.750Z,96.96
2022-10-30T08:08:54.591Z,98.82
2022-10-30T08:11:22.157Z,96.35
2022-10-30T08:13:49.734Z,97.54
2022-10-30T08:16:18.147Z,99.33
2022-10-30T08:18:45.863Z,97.76
2022-10-30T08:21:13.361Z,99.28
2022-10-30T08:23:42.221Z,100.00
2022-10-30T08:26:09.862Z,100.00
2022-10-30T08:28:37.327Z,100.00
2022-10-30T08:31:05.841Z,100.00
2022-10-30T08:33:33.188Z,100.00
2022-10-30T08:36:01.982Z,100.00
2022-10-30T08:38:29.917Z,100.00
2022-10-30T08:40:59.650Z,100.00
2022-10-30T08:43:27.125Z,100.00
2022-10-30T08:45:54.650Z,100.00
2022-10-30T08:48:22.110Z,100.00
2022-10-30T08:50:49.589Z,100.00
2022-10-30T08:53:17.170Z,100.00
2022-10-30T08:55:44.681Z,100.00
2022-10-30T08:58:13.478Z,100.00
2022-10-30T09:00:40.949Z,100.00
2022-10-30T09:03:08.438Z,100.00
2022-10-30T09:05:37.761Z,100.00
2022-10-30T09:08:05.520Z,100.00
2022-10-30T09:10:33.057Z,100.00
2022-10-30T09:13:02.285Z,100.00
2022-10-30T09:15:31.681Z,100.00
2022-10-30T09:18:01.367Z,100.00
2022-10-30T09:20:29.897Z,100.00
2022-10-30T09:22:58.031Z,100.00
2022-10-30T09:25:25.953Z,100.00
2022-10-30T09:27:53.431Z,100.00
2022-10-30T09:30:21.237Z,100.00
2022-10-30T09:32:57.302Z,100.00
2022-10-30T09:35:25.614Z,100.00
2022-10-30T09:37:53.149Z,100.00
2022-10-30T09:40:25.261Z,100.00
2022-10-30T09:42:53.234Z,100.00
2022-10-30T09:45:56.010Z,100.00
2022-10-30T09:48:58.429Z,100.00
2022-10-30T09:51:49.121Z,100.00
2022-10-30T09:54:29.994Z,100.00
2022-10-30T09:57:03.525Z,100.00
2022-10-30T09:59:44.319Z,100.00
2022-10-30T10:02:25.753Z,100.00
2022-10-30T10:04:59.222Z,100.00
2022-10-30T10:07:31.024Z,100.00
2022-10-30T10:10:02.206Z,100.00
2022-10-30T10:12:35.185Z,100.00
2022-10-30T10:15:10.462Z,100.00
2022-10-30T10:17:42.176Z,100.00
2022-10-30T10:20:17.950Z,100.00
2022-10-30T10:22:49.499Z,100.00
2022-10-30T10:25:19.021Z,100.00
2022-10-30T10:27:57.089Z,100.00
2022-10-30T10:30:25.316Z,100.00
2022-10-30T10:33:16.495Z,100.00
2022-10-30T10:35:54.847Z,97.93
2022-10-30T10:38:37.230Z,97.38
2022-10-30T10:41:18.617Z,97.14
2022-10-30T10:44:01.675Z,94.79
2022-10-30T10:46:42.145Z,94.97
2022-10-30T10:49:23.757Z,98.55
2022-10-30T10:51:56.193Z,94.87
2022-10-30T10:54:29.164Z,94.48
2022-10-30T10:56:59.621Z,95.26
2022-10-30T10:59:35.732Z,93.51
2022-10-30T11:02:25.923Z,90.56
2022-10-30T11:05:02.773Z,91.91
2022-10-30T11:07:34.318Z,94.77
2022-10-30T11:10:01.786Z,92.30
2022-10-30T11:12:33.925Z,89.90
2022-10-30T11:15:19.092Z,90.49
2022-10-30T11:17:55.216Z,85.75
2022-10-30T11:20:30.622Z,86.37
2022-10-30T11:22:59.803Z,88.22
2022-10-30T11:25:35.309Z,88.14
2022-10-30T11:28:05.541Z,88.14
2022-10-30T11:30:33.697Z,87.38
2022-10-30T11:33:22.776Z,85.12
2022-10-30T11:35:50.391Z,82.95
2022-10-30T11:38:21.448Z,86.17
2022-10-30T11:40:52.784Z,82.19
2022-10-30T11:43:23.524Z,81.58
2022-10-30T11:45:52.012Z,82.40
2022-10-30T11:48:25.990Z,85.41
2022-10-30T11:50:57.968Z,86.60
2022-10-30T11:53:32.651Z,86.87
2022-10-30T11:56:00.220Z,85.18
2022-10-30T11:58:33.819Z,83.62
2022-10-30T12:01:04.899Z,83.15
2022-10-30T12:03:37.552Z,86.58
2022-10-30T12:06:10.986Z,85.65
2022-10-30T12:08:39.821Z,83.11
2022-10-30T12:11:07.744Z,81.64
2022-10-30T12:13:40.378Z,80.23
2022-10-30T12:16:14.508Z,80.69
2022-10-30T12:18:42.709Z,81.04
2022-10-30T12:21:11.975Z,82.72
2022-10-30T12:23:41.190Z,85.89
2022-10-30T12:26:11.972Z,85.29
2022-10-30T12:28:40.509Z,81.07
2022-10-30T12:31:13.669Z,85.48
2022-10-30T12:33:46.347Z,86.93
2022-10-30T12:36:18.485Z,87.83
2022-10-30T12:38:52.896Z,90.86
2022-10-30T12:41:26.111Z,86.15
2022-10-30T12:44:00.464Z,86.71
2022-10-30T12:46:35.019Z,83.00
2022-10-30T12:49:11.812Z,84.77
2022-10-30T12:51:47.991Z,85.34
2022-10-30T12:54:26.600Z,83.27
2022-10-30T12:57:09.359Z,90.69
2022-10-30T12:59:44.800Z,85.95
2022-10-30T13:02:22.320Z,84.03
2022-10-30T13:04:57.730Z,85.45
2022-10-30T13:07:30.507Z,83.79
2022-10-30T13:10:12.543Z,84.25
2022-10-30T13:12:43.956Z,87.31
2022-10-30T13:15:20.117Z,85.37
2022-10-30T13:17:47.657Z,83.57
2022-10-30T13:20:17.040Z,86.43
2022-10-30T13:22:50.040Z,85.27
2022-10-30T13:25:25.463Z,84.71
2022-10-30T13:28:00.027Z,85.33
2022-10-30T13:30:33.244Z,83.79
2022-10-30T13:33:12.816Z,82.99
2022-10-30T13:35:48.873Z,85.92
2022-10-30T13:38:33.992Z,84.07
2022-10-30T13:41:12.347Z,84.80
2022-10-30T13:43:50.759Z,83.75
2022-10-30T13:46:47.243Z,83.65
2022-10-30T13:49:32.948Z,85.40
2022-10-30T13:52:05.683Z,82.40
2022-10-30T13:54:36.755Z,83.67
2022-10-30T13:57:12.312Z,83.00
2022-10-30T13:59:53.199Z,82.79
2022-10-30T14:02:34.199Z,79.31
2022-10-30T14:05:14.236Z,84.48
2022-10-30T14:07:49.561Z,81.99
2022-10-30T14:10:23.793Z,82.86
2022-10-30T14:13:06.129Z,87.23
2022-10-30T14:15:41.519Z,88.71
2022-10-30T14:18:15.648Z,89.26
2022-10-30T14:20:46.211Z,89.66
2022-10-30T14:23:15.929Z,91.44
2022-10-30T14:25:43.837Z,92.80
2022-10-30T14:28:21.598Z,93.42
2022-10-30T14:30:51.421Z,93.33
2022-10-30T14:33:45.717Z,94.42
2022-10-30T14:36:14.524Z,96.02
2022-10-30T14:38:42.316Z,97.12
2022-10-30T14:41:22.399Z,98.44
2022-10-30T14:44:00.448Z,98.72
2022-10-30T14:46:34.712Z,98.50
2022-10-30T14:49:13.285Z,99.32
2022-10-30T14:51:46.268Z,99.11
2022-10-30T14:54:23.031Z,98.89
2022-10-30T14:56:52.609Z,99.87
2022-10-30T14:59:32.511Z,99.93
2022-10-30T15:02:11.886Z,99.27
2022-10-30T15:04:54.083Z,99.96
2022-10-30T15:07:28.591Z,99.68
2022-10-30T15:10:12.127Z,100.00
2022-10-30T15:13:01.276Z,100.00
2022-10-30T15:15:31.573Z,99.39
2022-10-30T15:18:02.729Z,99.96
2022-10-30T15:20:34.052Z,100.00
2022-10-30T15:23:04.776Z,100.00
2022-10-30T15:25:36.886Z,100.00
2022-10-30T15:28:05.663Z,100.00
2022-10-30T15:30:34.559Z,100.00
2022-10-30T15:33:02.640Z,99.77
2022-10-30T15:35:30.503Z,100.00
2022-10-30T15:38:03.335Z,100.00
2022-10-30T15:40:32.147Z,99.70
2022-10-30T15:43:02.477Z,100.00
2022-10-30T15:45:35.312Z,100.00
2022-10-30T15:48:08.934Z,100.00
2022-10-30T15:50:40.322Z,99.63
2022-10-30T15:53:15.875Z,99.55
2022-10-30T15:55:43.824Z,99.72
2022-10-30T15:58:18.345Z,98.84
2022-10-30T16:00:57.540Z,99.45
2022-10-30T16:03:25.379Z,99.23
2022-10-30T16:06:03.782Z,99.48
2022-10-30T16:08:31.278Z,99.07
2022-10-30T16:10:58.897Z,98.81
2022-10-30T16:13:30.859Z,99.20
2022-10-30T16:16:01.262Z,99.01
2022-10-30T16:18:31.873Z,98.27
2022-10-30T16:21:03.810Z,98.20
2022-10-30T16:23:37.926Z,97.66
2022-10-30T16:26:05.626Z,97.88
2022-10-30T16:28:34.921Z,97.81
2022-10-30T16:31:06.605Z,98.13
2022-10-30T16:33:36.262Z,97.50
2022-10-30T16:36:05.769Z,97.10
2022-10-30T16:38:37.622Z,96.80
2022-10-30T16:41:06.547Z,97.30
2022-10-30T16:43:35.463Z,97.80
2022-10-30T16:46:35.411Z,96.96
2022-10-30T16:49:06.562Z,97.45
2022-10-30T16:51:34.224Z,98.31
2022-10-30T16:54:01.718Z,98.28
2022-10-30T16:56:31.658Z,95.82
2022-10-30T16:59:08.675Z,97.34
2022-10-30T17:01:37.781Z,96.96
2022-10-30T17:04:06.149Z,99.21
2022-10-30T17:06:40.243Z,97.29
2022-10-30T17:09:09.951Z,96.53
2022-10-30T17:11:41.768Z,96.01
2022-10-30T17:14:27.247Z,95.88
2022-10-30T17:16:57.700Z,96.99
2022-10-30T17:19:48.220Z,100.00
2022-10-30T17:22:20.207Z,99.03
2022-10-30T17:24:48.967Z,96.96
2022-10-30T17:27:56.008Z,96.49
2022-10-30T17:30:34.326Z,96.59
2022-10-30T17:33:04.327Z,95.58
2022-10-30T17:35:31.873Z,95.59
2022-10-30T17:38:01.794Z,95.51
2022-10-30T17:40:30.644Z,96.38
2022-10-30T17:42:58.126Z,96.44
2022-10-30T17:45:25.591Z,95.55
2022-10-30T17:47:53.459Z,96.16
2022-10-30T17:50:22.323Z,96.21
2022-10-30T17:52:50.039Z,94.87
2022-10-30T17:55:26.576Z,93.76
2022-10-30T17:57:54.214Z,95.64
2022-10-30T18:00:21.917Z,94.09
2022-10-30T18:02:49.399Z,95.08
2022-10-30T18:05:19.715Z,94.87
2022-10-30T18:10:21.173Z,95.23
2022-10-30T18:12:48.688Z,95.77
2022-10-30T18:15:27.140Z,94.68
2022-10-30T18:17:54.826Z,95.47
2022-10-30T18:20:22.479Z,94.21
2022-10-30T18:22:51.557Z,93.55
2022-10-30T18:25:22.442Z,92.86
2022-10-30T18:27:49.941Z,94.61
2022-10-30T18:30:18.620Z,94.89
2022-10-30T18:32:47.003Z,93.98
2022-10-30T18:35:15.705Z,93.33
2022-10-30T18:37:43.406Z,93.54
2022-10-30T18:40:12.955Z,93.27
2022-10-30T18:42:40.430Z,94.06
2022-10-30T18:45:19.209Z,94.39
2022-10-30T18:47:46.906Z,93.77
2022-10-30T18:50:14.843Z,93.28
2022-10-30T18:52:42.934Z,93.23
2022-10-30T18:55:21.194Z,93.22
2022-10-30T18:57:49.900Z,92.87
2022-10-30T19:00:19.987Z,93.04
2022-10-30T19:02:47.630Z,92.52
2022-10-30T19:05:30.051Z,92.88
2022-10-30T19:07:58.918Z,92.60
2022-10-30T19:10:29.784Z,92.42
2022-10-30T19:13:11.554Z,93.21
2022-10-30T19:15:42.206Z,92.47
2022-10-30T19:18:09.809Z,91.36
2022-10-30T19:20:58.999Z,92.26
2022-10-30T19:23:26.590Z,92.47
2022-10-30T19:25:56.298Z,92.53
2022-10-30T19:28:23.952Z,91.73
2022-10-30T19:30:52.782Z,92.36
2022-10-30T19:33:21.999Z,91.73
2022-10-30T19:35:54.847Z,92.71
2022-10-30T19:38:22.629Z,91.34
2022-10-30T19:40:50.751Z,92.11
2022-10-30T19:43:19.629Z,93.26
2022-10-30T19:45:49.074Z,92.03
2022-10-30T19:48:40.414Z,91.40
2022-10-30T19:51:11.307Z,91.33
2022-10-30T19:53:39.122Z,91.78
2022-10-30T19:56:09.394Z,91.10
2022-10-30T19:58:38.235Z,90.82
2022-10-30T20:01:05.950Z,90.67
2022-10-30T20:03:33.469Z,90.95
2022-10-30T20:06:00.951Z,91.23
2022-10-30T20:08:29.041Z,90.80
2022-10-30T20:10:57.881Z,91.43
2022-10-30T20:13:26.690Z,90.29
2022-10-30T20:15:57.086Z,92.44
2022-10-30T20:18:27.277Z,90.76
2022-10-30T20:20:56.337Z,90.42
2022-10-30T20:23:24.927Z,90.99
2022-10-30T20:25:54.177Z,90.96
2022-10-30T20:28:24.622Z,90.38
2022-10-30T20:30:52.312Z,90.46
2022-10-30T20:33:22.690Z,89.95
2022-10-30T20:35:51.889Z,90.34
2022-10-30T20:38:21.301Z,90.92
2022-10-30T20:40:49.745Z,90.49
2022-10-30T20:43:18.178Z,89.81
2022-10-30T20:45:45.883Z,88.72
2022-10-30T20:48:13.717Z,90.18
2022-10-30T20:50:45.480Z,89.94
2022-10-30T20:53:16.633Z,90.12
2022-10-30T20:55:44.152Z,90.53
2022-10-30T20:58:11.781Z,90.45
2022-10-30T21:00:39.594Z,90.20
2022-10-30T21:03:08.217Z,91.78
2022-10-30T21:05:43.894Z,90.33
2022-10-30T21:08:13.952Z,90.91
2022-10-30T21:10:42.146Z,90.09
2022-10-30T21:13:11.189Z,89.69
2022-10-30T21:15:40.029Z,89.65
2022-10-30T21:18:07.600Z,90.96
2022-10-30T21:20:35.255Z,89.30
2022-10-30T21:23:02.760Z,90.11
2022-10-30T21:25:32.190Z,89.61
2022-10-30T21:28:00.002Z,90.23
2022-10-30T21:30:27.826Z,91.50
2022-10-30T21:32:55.365Z,90.80
2022-10-30T21:35:22.834Z,89.88
2022-10-30T21:37:50.466Z,89.37
2022-10-30T21:40:18.083Z,89.46
2022-10-30T21:42:49.585Z,88.94
2022-10-30T21:45:17.286Z,89.00
2022-10-30T21:47:44.743Z,89.07
2022-10-30T21:50:13.022Z,89.45
2022-10-30T21:52:40.783Z,89.68
2022-10-30T21:55:08.792Z,88.38
2022-10-30T21:57:36.728Z,89.28
2022-10-30T22:00:07.546Z,90.52
2022-10-30T22:02:35.167Z,88.72
2022-10-30T22:05:02.680Z,89.09
2022-10-30T22:07:30.146Z,89.02
2022-10-30T22:09:57.603Z,89.56
2022-10-30T22:12:25.045Z,89.38
2022-10-30T22:14:52.513Z,89.47
2022-10-30T22:17:21.308Z,88.95
2022-10-30T22:19:48.814Z,88.71
2022-10-30T22:22:16.280Z,89.05
2022-10-30T22:24:43.742Z,88.14
2022-10-30T22:27:11.192Z,88.91
2022-10-30T22:29:38.728Z,89.36
2022-10-30T22:32:06.473Z,88.84
2022-10-30T22:34:35.298Z,89.56
2022-10-30T22:37:04.784Z,88.37
2022-10-30T22:39:32.203Z,88.70
2022-10-30T22:41:59.725Z,88.46
2022-10-30T22:44:28.529Z,88.18
2022-10-30T22:46:55.979Z,89.14
2022-10-30T22:49:23.420Z,89.16
2022-10-30T22:51:52.220Z,87.73
2022-10-30T22:54:19.675Z,87.58
2022-10-30T22:56:47.124Z,89.04
2022-10-30T22:59:15.387Z,87.99
2022-10-30T23:01:43.659Z,88.04
2022-10-30T23:04:12.646Z,87.58
2022-10-30T23:06:40.330Z,87.54
2022-10-30T23:09:11.079Z,89.03
2022-10-30T23:11:38.549Z,88.44
2022-10-30T23:14:06.000Z,87.15
2022-10-30T23:16:33.617Z,88.49
2022-10-30T23:19:04.298Z,88.10
2022-10-30T23:21:32.558Z,87.80
2022-10-30T23:24:00.661Z,87.67
2022-10-30T23:26:31.790Z,89.29
2022-10-30T23:29:00.532Z,88.78
2022-10-30T23:31:29.566Z,88.09
2022-10-30T23:33:59.147Z,88.38
2022-10-30T23:36:26.927Z,89.45
2022-10-30T23:38:55.217Z,89.74
2022-10-30T23:41:23.266Z,88.97
2022-10-30T23:43:55.263Z,90.38
2022-10-30T23:46:22.880Z,89.46
2022-10-30T23:48:50.894Z,90.53
2022-10-30T23:51:18.748Z,91.91
2022-10-30T23:53:46.280Z,90.36
2022-10-30T23:56:14.275Z,92.35
2022-10-30T23:58:43.861Z,100.00
